createdAt,value
2019-01-12T00:01:44.059Z,6.37
2019-01-12T00:04:37.857Z,6.67
2019-01-12T00:07:12.458Z,6.53
2019-01-12T00:09:44.141Z,6.77
2019-01-12T00:12:16.339Z,6.33
2019-01-12T00:14:47.463Z,6.77
2019-01-12T00:17:19.017Z,6.93
2019-01-12T00:19:50.488Z,5.47
2019-01-12T00:22:21.458Z,7.77
2019-01-12T00:24:52.040Z,7.00
2019-01-12T00:27:24.668Z,6.90
2019-01-12T00:30:06.752Z,7.57
2019-01-12T00:32:37.509Z,7.37
2019-01-12T00:35:09.659Z,7.00
2019-01-12T00:37:41.917Z,6.03
2019-01-12T00:40:13.029Z,6.47
2019-01-12T00:42:44.737Z,6.63
2019-01-12T00:45:15.927Z,7.33
2019-01-12T00:47:48.523Z,7.30
2019-01-12T00:50:19.994Z,7.03
2019-01-12T00:53:15.352Z,6.63
2019-01-12T00:55:47.074Z,8.27
2019-01-12T00:58:18.096Z,6.83
2019-01-12T01:00:49.226Z,8.37
2019-01-12T01:03:20.556Z,7.73
2019-01-12T01:05:51.230Z,9.43
2019-01-12T01:08:28.200Z,7.80
2019-01-12T01:11:02.109Z,7.03
2019-01-12T01:13:33.399Z,6.67
2019-01-12T01:16:04.048Z,7.50
2019-01-12T01:18:43.309Z,6.17
2019-01-12T01:21:14.330Z,8.23
2019-01-12T01:23:46.208Z,8.00
2019-01-12T01:26:16.848Z,7.23
2019-01-12T01:28:47.885Z,7.30
2019-01-12T01:31:19.032Z,7.70
2019-01-12T01:33:50.578Z,7.87
2019-01-12T01:36:21.520Z,7.60
2019-01-12T01:39:08.008Z,7.63
2019-01-12T01:41:39.055Z,6.83
2019-01-12T01:44:09.999Z,6.73
2019-01-12T01:46:41.423Z,7.30
2019-01-12T01:49:13.102Z,7.57
2019-01-12T01:51:44.451Z,7.30
2019-01-12T01:54:15.630Z,6.73
2019-01-12T01:56:46.230Z,7.13
2019-01-12T01:59:17.255Z,7.50
2019-01-12T02:01:47.980Z,6.33
2019-01-12T02:04:18.614Z,6.53
2019-01-12T02:06:49.695Z,7.33
2019-01-12T02:09:20.748Z,7.43
2019-01-12T02:11:58.174Z,7.17
2019-01-12T02:14:29.483Z,6.83
2019-01-12T02:17:00.065Z,8.60
2019-01-12T02:19:31.057Z,7.07
2019-01-12T02:22:01.737Z,6.80
2019-01-12T02:24:32.344Z,7.27
2019-01-12T02:27:03.595Z,8.97
2019-01-12T02:29:34.405Z,6.73
2019-01-12T02:32:05.387Z,7.73
2019-01-12T02:34:36.036Z,7.50
2019-01-12T02:37:06.961Z,7.93
2019-01-12T02:39:37.927Z,8.03
2019-01-12T02:42:08.597Z,7.93
2019-01-12T02:44:39.598Z,7.77
2019-01-12T02:47:10.526Z,7.57
2019-01-12T02:50:07.575Z,8.50
2019-01-12T02:52:38.959Z,7.73
2019-01-12T02:55:11.333Z,9.70
2019-01-12T02:57:42.378Z,8.10
2019-01-12T03:00:17.445Z,7.70
2019-01-12T03:02:48.947Z,7.23
2019-01-12T03:05:19.551Z,8.20
2019-01-12T03:07:50.608Z,8.33
2019-01-12T03:10:21.544Z,7.67
2019-01-12T03:12:52.237Z,6.87
2019-01-12T03:15:22.890Z,6.73
2019-01-12T03:17:53.596Z,7.50
2019-01-12T03:20:24.265Z,6.50
2019-01-12T03:22:54.957Z,6.73
2019-01-12T03:25:25.939Z,7.07
2019-01-12T03:27:56.981Z,7.27
2019-01-12T03:30:28.399Z,6.33
2019-01-12T03:33:00.382Z,6.73
2019-01-12T03:35:31.023Z,7.03
2019-01-12T03:38:02.073Z,6.37
2019-01-12T03:40:33.085Z,7.13
2019-01-12T03:43:04.041Z,6.50
2019-01-12T03:45:35.575Z,6.33
2019-01-12T03:48:06.728Z,6.73
2019-01-12T03:50:38.012Z,7.03
2019-01-12T03:53:09.366Z,6.60
2019-01-12T03:55:41.088Z,7.87
2019-01-12T03:58:12.434Z,7.87
2019-01-12T04:00:43.784Z,7.17
2019-01-12T04:03:15.142Z,8.20
2019-01-12T04:05:46.482Z,7.77
2019-01-12T04:08:17.125Z,7.30
2019-01-12T04:10:49.601Z,7.90
2019-01-12T04:13:20.931Z,8.63
2019-01-12T04:15:51.219Z,7.67
2019-01-12T04:18:22.604Z,7.53
2019-01-12T04:20:53.954Z,7.17
2019-01-12T04:23:24.252Z,7.40
2019-01-12T04:25:58.362Z,6.57
2019-01-12T04:28:29.734Z,7.17
2019-01-12T04:31:00.760Z,7.37
2019-01-12T04:33:32.112Z,7.07
2019-01-12T04:36:03.051Z,6.73
2019-01-12T04:38:34.371Z,7.10
2019-01-12T04:41:05.459Z,6.93
2019-01-12T04:43:36.378Z,6.83
2019-01-12T04:46:07.972Z,7.43
2019-01-12T04:48:39.295Z,6.50
2019-01-12T04:51:10.928Z,6.40
2019-01-12T04:53:42.538Z,7.37
2019-01-12T04:56:12.882Z,6.43
2019-01-12T04:58:44.188Z,6.67
2019-01-12T05:01:15.537Z,6.63
2019-01-12T05:03:46.927Z,6.93
2019-01-12T05:06:18.911Z,6.37
2019-01-12T05:08:49.960Z,5.97
2019-01-12T05:11:21.554Z,6.67
2019-01-12T05:13:52.983Z,7.20
2019-01-12T05:16:24.304Z,6.40
2019-01-12T05:18:54.609Z,6.73
2019-01-12T05:21:25.594Z,6.83
2019-01-12T05:23:56.900Z,7.23
2019-01-12T05:26:27.965Z,7.17
2019-01-12T05:28:58.581Z,5.90
2019-01-12T05:31:29.586Z,6.20
2019-01-12T05:34:01.272Z,7.03
2019-01-12T05:36:31.977Z,6.30
2019-01-12T05:39:02.892Z,6.90
2019-01-12T05:41:34.217Z,6.97
2019-01-12T05:44:04.911Z,6.50
2019-01-12T05:46:35.548Z,7.83
2019-01-12T05:49:06.295Z,6.37
2019-01-12T05:51:37.898Z,7.00
2019-01-12T05:54:08.896Z,6.83
2019-01-12T05:56:39.961Z,5.83
2019-01-12T05:59:10.990Z,6.90
2019-01-12T06:01:42.294Z,7.23
2019-01-12T06:04:13.577Z,7.33
2019-01-12T06:06:44.886Z,7.90
2019-01-12T06:09:15.865Z,8.30
2019-01-12T06:11:56.426Z,8.23
2019-01-12T06:14:27.741Z,7.60
2019-01-12T06:16:58.740Z,9.73
2019-01-12T06:19:30.424Z,9.30
2019-01-12T06:22:01.443Z,10.37
2019-01-12T06:24:32.064Z,9.97
2019-01-12T06:27:03.398Z,8.60
2019-01-12T06:29:34.041Z,9.00
2019-01-12T06:32:04.982Z,8.70
2019-01-12T06:34:35.328Z,10.50
2019-01-12T06:37:07.469Z,9.60
2019-01-12T06:39:37.787Z,11.20
2019-01-12T06:42:08.402Z,8.73
2019-01-12T06:44:39.696Z,10.27
2019-01-12T06:47:11.164Z,10.57
2019-01-12T06:50:01.968Z,8.67
2019-01-12T06:52:33.355Z,8.53
2019-01-12T06:55:05.050Z,8.43
2019-01-12T06:57:36.070Z,9.40
2019-01-12T07:00:13.354Z,9.60
2019-01-12T07:02:44.081Z,8.33
2019-01-12T07:05:14.709Z,8.77
2019-01-12T07:07:45.407Z,9.77
2019-01-12T07:10:16.302Z,9.33
2019-01-12T07:12:47.388Z,9.63
2019-01-12T07:15:18.040Z,10.07
2019-01-12T07:17:48.328Z,9.40
2019-01-12T07:20:19.945Z,8.20
2019-01-12T07:22:50.979Z,8.27
2019-01-12T07:25:21.692Z,9.40
2019-01-12T07:27:52.655Z,8.90
2019-01-12T07:30:25.517Z,8.10
2019-01-12T07:32:56.912Z,9.70
2019-01-12T07:35:46.298Z,9.73
2019-01-12T07:38:17.397Z,8.67
2019-01-12T07:40:48.461Z,9.70
2019-01-12T07:43:19.480Z,8.17
2019-01-12T07:45:50.938Z,9.13
2019-01-12T07:48:21.971Z,9.27
2019-01-12T07:50:52.654Z,8.53
2019-01-12T07:53:23.372Z,9.23
2019-01-12T07:55:54.183Z,11.03
2019-01-12T07:58:24.441Z,8.63
2019-01-12T08:00:55.506Z,9.70
2019-01-12T08:03:26.497Z,9.43
2019-01-12T08:06:10.911Z,9.33
2019-01-12T08:08:42.510Z,8.07
2019-01-12T08:11:13.789Z,9.13
2019-01-12T08:13:45.487Z,9.20
2019-01-12T08:16:17.867Z,9.80
2019-01-12T08:18:49.341Z,9.33
2019-01-12T08:21:20.639Z,9.13
2019-01-12T08:23:52.001Z,8.93
2019-01-12T08:26:23.331Z,8.57
2019-01-12T08:28:54.291Z,9.13
2019-01-12T08:31:25.234Z,8.87
2019-01-12T08:33:56.467Z,9.53
2019-01-12T08:36:27.842Z,9.83
2019-01-12T08:38:59.617Z,9.80
2019-01-12T08:41:30.647Z,10.43
2019-01-12T08:44:01.965Z,9.87
2019-01-12T08:46:33.426Z,10.23
2019-01-12T08:49:15.827Z,9.03
2019-01-12T08:51:46.168Z,9.03
2019-01-12T08:54:17.457Z,8.33
2019-01-12T08:56:48.445Z,8.50
2019-01-12T08:59:19.069Z,9.57
2019-01-12T09:01:50.524Z,8.73
2019-01-12T09:04:21.358Z,7.90
2019-01-12T09:06:52.396Z,7.93
2019-01-12T09:09:23.425Z,7.87
2019-01-12T09:11:54.817Z,8.57
2019-01-12T09:14:25.126Z,9.73
2019-01-12T09:16:55.749Z,9.10
2019-01-12T09:19:26.061Z,8.70
2019-01-12T09:21:57.090Z,8.83
2019-01-12T09:24:28.257Z,7.90
2019-01-12T09:26:58.998Z,9.07
2019-01-12T09:29:30.379Z,8.33
2019-01-12T09:32:02.358Z,7.57
2019-01-12T09:34:32.709Z,8.30
2019-01-12T09:37:03.966Z,8.87
2019-01-12T09:39:35.299Z,7.57
2019-01-12T09:42:06.001Z,8.83
2019-01-12T09:44:41.404Z,9.20
2019-01-12T09:47:13.118Z,8.00
2019-01-12T09:49:43.831Z,7.93
2019-01-12T09:52:44.799Z,12.70
2019-01-12T09:55:16.463Z,11.00
2019-01-12T09:57:58.518Z,8.27
2019-01-12T10:00:29.225Z,8.53
2019-01-12T10:03:00.030Z,8.73
2019-01-12T10:05:32.224Z,7.63
2019-01-12T10:08:03.879Z,7.77
2019-01-12T10:10:34.665Z,18.70
2019-01-12T10:13:05.454Z,11.30
2019-01-12T10:15:36.871Z,14.20
2019-01-12T10:18:07.932Z,8.27
2019-01-12T10:20:38.828Z,7.03
2019-01-12T10:23:10.210Z,7.50
2019-01-12T10:25:40.956Z,6.97
2019-01-12T10:28:11.994Z,7.70
2019-01-12T10:30:47.725Z,6.60
2019-01-12T10:33:18.377Z,7.43
2019-01-12T10:35:49.317Z,7.27
2019-01-12T10:38:21.186Z,7.47
2019-01-12T10:40:52.733Z,8.57
2019-01-12T10:43:24.196Z,7.67
2019-01-12T10:46:08.430Z,6.97
2019-01-12T10:48:40.337Z,7.70
2019-01-12T10:51:13.856Z,7.17
2019-01-12T10:53:45.561Z,6.90
2019-01-12T10:56:23.603Z,7.30
2019-01-12T10:58:55.396Z,6.60
2019-01-12T11:01:25.702Z,6.90
2019-01-12T11:04:00.356Z,7.00
2019-01-12T11:06:33.677Z,6.90
2019-01-12T11:09:19.024Z,5.80
2019-01-12T11:11:50.581Z,6.53
2019-01-12T11:14:22.374Z,5.50
2019-01-12T11:16:53.007Z,6.30
2019-01-12T11:19:24.455Z,6.40
2019-01-12T11:22:01.007Z,6.57
2019-01-12T11:24:49.428Z,6.50
2019-01-12T11:27:22.738Z,6.20
2019-01-12T11:29:53.804Z,11.17
2019-01-12T11:32:25.338Z,6.37
2019-01-12T11:34:56.885Z,6.07
2019-01-12T11:37:32.117Z,6.33
2019-01-12T11:40:03.470Z,6.43
2019-01-12T11:42:34.101Z,7.40
2019-01-12T11:45:06.024Z,7.03
2019-01-12T11:47:36.388Z,6.30
2019-01-12T11:50:13.254Z,5.37
2019-01-12T11:52:45.069Z,6.70
2019-01-12T11:55:17.514Z,7.10
2019-01-12T11:57:53.493Z,6.53
2019-01-12T12:00:31.875Z,6.67
2019-01-12T12:03:03.365Z,6.67
2019-01-12T12:05:35.138Z,7.40
2019-01-12T12:08:06.124Z,7.40
2019-01-12T12:10:43.662Z,7.17
2019-01-12T12:13:14.582Z,7.00
2019-01-12T12:15:44.874Z,8.30
2019-01-12T12:18:15.550Z,8.20
2019-01-12T12:20:46.736Z,6.87
2019-01-12T12:23:24.121Z,6.30
2019-01-12T12:25:59.392Z,6.97
2019-01-12T12:28:31.025Z,7.20
2019-01-12T12:31:02.415Z,7.90
2019-01-12T12:33:34.408Z,8.03
2019-01-12T12:36:05.828Z,8.97
2019-01-12T12:38:36.212Z,7.93
2019-01-12T12:41:12.338Z,8.10
2019-01-12T12:43:44.053Z,7.83
2019-01-12T12:46:14.903Z,7.83
2019-01-12T12:48:56.858Z,6.30
2019-01-12T12:51:28.243Z,7.93
2019-01-12T12:53:59.167Z,8.23
2019-01-12T12:56:30.606Z,8.63
2019-01-12T12:59:02.662Z,7.27
2019-01-12T13:01:33.564Z,9.27
2019-01-12T13:04:03.944Z,7.27
2019-01-12T13:06:44.820Z,6.83
2019-01-12T13:09:16.446Z,7.47
2019-01-12T13:11:48.200Z,7.23
2019-01-12T13:14:32.432Z,7.17
2019-01-12T13:17:04.209Z,7.73
2019-01-12T13:19:46.172Z,6.60
2019-01-12T13:22:17.156Z,7.17
2019-01-12T13:24:48.547Z,7.57
2019-01-12T13:27:19.558Z,7.73
2019-01-12T13:29:50.454Z,7.77
2019-01-12T13:32:21.415Z,8.47
2019-01-12T13:34:52.214Z,8.33
2019-01-12T13:37:22.831Z,8.10
2019-01-12T13:39:53.823Z,7.43
2019-01-12T13:42:26.104Z,7.23
2019-01-12T13:44:57.448Z,7.97
2019-01-12T13:47:28.489Z,6.13
2019-01-12T13:49:59.640Z,7.57
2019-01-12T13:52:34.833Z,7.53
2019-01-12T13:55:06.783Z,7.33
2019-01-12T13:57:37.778Z,7.57
2019-01-12T14:00:22.899Z,7.13
2019-01-12T14:02:53.475Z,7.43
2019-01-12T14:05:33.750Z,7.13
2019-01-12T14:08:06.949Z,8.57
2019-01-12T14:10:38.501Z,8.73
2019-01-12T14:13:09.713Z,8.10
2019-01-12T14:15:40.445Z,7.73
2019-01-12T14:18:11.738Z,7.83
2019-01-12T14:20:42.665Z,7.93
2019-01-12T14:23:13.656Z,8.43
2019-01-12T14:25:45.132Z,8.43
2019-01-12T14:28:16.179Z,9.07
2019-01-12T14:30:47.206Z,9.20
2019-01-12T14:33:17.858Z,8.70
2019-01-12T14:35:49.192Z,9.20
2019-01-12T14:38:20.227Z,8.23
2019-01-12T14:40:51.599Z,7.73
2019-01-12T14:43:22.261Z,8.57
2019-01-12T14:45:52.767Z,7.80
2019-01-12T14:48:24.190Z,7.97
2019-01-12T14:50:54.636Z,7.93
2019-01-12T14:53:25.925Z,7.57
2019-01-12T14:55:59.932Z,7.80
2019-01-12T14:58:30.989Z,8.43
2019-01-12T15:01:02.488Z,7.13
2019-01-12T15:03:40.091Z,7.27
2019-01-12T15:06:10.564Z,6.03
2019-01-12T15:08:40.939Z,6.87
2019-01-12T15:11:12.285Z,5.90
2019-01-12T15:13:42.971Z,6.00
2019-01-12T15:16:14.342Z,6.70
2019-01-12T15:18:49.481Z,5.53
2019-01-12T15:21:20.521Z,6.00
2019-01-12T15:23:51.904Z,5.90
2019-01-12T15:26:22.329Z,5.53
2019-01-12T15:28:55.366Z,6.47
2019-01-12T15:31:26.134Z,6.23
2019-01-12T15:33:57.167Z,7.03
2019-01-12T15:36:28.288Z,7.00
2019-01-12T15:39:01.776Z,6.60
2019-01-12T15:41:32.629Z,6.67
2019-01-12T15:44:03.759Z,6.67
2019-01-12T15:46:34.834Z,6.57
2019-01-12T15:49:05.161Z,6.67
2019-01-12T15:51:42.409Z,6.93
2019-01-12T15:54:14.308Z,7.33
2019-01-12T15:56:46.126Z,7.27
2019-01-12T15:59:25.941Z,7.03
2019-01-12T16:01:56.758Z,8.27
2019-01-12T16:04:32.891Z,7.43
2019-01-12T16:07:03.588Z,6.47
2019-01-12T16:09:34.173Z,7.37
2019-01-12T16:12:24.833Z,6.77
2019-01-12T16:15:08.055Z,6.80
2019-01-12T16:17:52.667Z,6.63
2019-01-12T16:20:33.408Z,7.20
2019-01-12T16:23:16.536Z,6.33
2019-01-12T16:25:47.600Z,5.87
2019-01-12T16:28:23.634Z,5.73
2019-01-12T16:30:54.563Z,5.93
2019-01-12T16:33:25.655Z,5.27
2019-01-12T16:35:57.254Z,4.63
2019-01-12T16:38:28.696Z,5.10
2019-01-12T16:40:59.734Z,6.10
2019-01-12T16:43:42.105Z,8.27
2019-01-12T16:46:12.753Z,5.80
2019-01-12T16:48:43.752Z,4.47
2019-01-12T16:51:16.770Z,5.93
2019-01-12T16:53:47.780Z,5.53
2019-01-12T16:56:18.388Z,5.57
2019-01-12T16:58:50.007Z,6.13
2019-01-12T17:01:21.529Z,7.70
2019-01-12T17:03:52.736Z,5.90
2019-01-12T17:06:23.505Z,6.37
2019-01-12T17:08:56.421Z,6.77
2019-01-12T17:11:27.814Z,6.60
2019-01-12T17:13:59.508Z,6.23
2019-01-12T17:16:30.923Z,5.33
2019-01-12T17:19:01.980Z,6.10
2019-01-12T17:21:32.994Z,5.33
2019-01-12T17:24:03.279Z,4.57
2019-01-12T17:26:34.264Z,4.97
2019-01-12T17:29:04.966Z,4.60
2019-01-12T17:31:35.597Z,4.27
2019-01-12T17:34:06.264Z,4.43
2019-01-12T17:36:36.904Z,4.80
2019-01-12T17:39:10.811Z,4.53
2019-01-12T17:41:42.195Z,5.57
2019-01-12T17:44:12.785Z,6.23
2019-01-12T17:46:43.465Z,4.73
2019-01-12T17:49:14.465Z,4.77
2019-01-12T17:51:45.443Z,4.17
2019-01-12T17:54:16.103Z,4.30
2019-01-12T17:56:47.181Z,4.53
2019-01-12T17:59:18.577Z,5.20
2019-01-12T18:01:49.666Z,4.80
2019-01-12T18:04:20.985Z,4.37
2019-01-12T18:06:52.046Z,3.87
2019-01-12T18:09:22.985Z,3.53
2019-01-12T18:11:54.482Z,3.70
2019-01-12T18:14:25.358Z,3.20
2019-01-12T18:16:56.482Z,3.83
2019-01-12T18:19:26.880Z,3.47
2019-01-12T18:21:57.968Z,3.70
2019-01-12T18:24:28.730Z,3.90
2019-01-12T18:27:18.441Z,3.53
2019-01-12T18:29:49.443Z,3.60
2019-01-12T18:32:20.135Z,3.67
2019-01-12T18:34:51.134Z,3.37
2019-01-12T18:37:22.149Z,3.87
2019-01-12T18:39:53.500Z,3.83
2019-01-12T18:42:24.543Z,4.27
2019-01-12T18:44:55.590Z,3.23
2019-01-12T18:47:26.942Z,3.83
2019-01-12T18:49:58.059Z,3.80
2019-01-12T18:52:29.133Z,3.43
2019-01-12T18:55:00.506Z,4.03
2019-01-12T18:57:32.030Z,4.20
2019-01-12T19:00:02.738Z,3.37
2019-01-12T19:02:34.089Z,3.77
2019-01-12T19:05:05.553Z,3.93
2019-01-12T19:07:37.344Z,3.47
2019-01-12T19:10:08.877Z,4.07
2019-01-12T19:12:39.917Z,3.73
2019-01-12T19:15:17.315Z,3.40
2019-01-12T19:17:48.332Z,3.90
2019-01-12T19:20:19.271Z,3.73
2019-01-12T19:22:50.651Z,3.30
2019-01-12T19:25:21.657Z,3.30
2019-01-12T19:27:52.726Z,3.50
2019-01-12T19:30:24.763Z,3.50
2019-01-12T19:32:55.742Z,3.17
2019-01-12T19:35:26.413Z,3.30
2019-01-12T19:37:58.050Z,3.27
2019-01-12T19:40:29.212Z,3.33
2019-01-12T19:42:59.517Z,3.60
2019-01-12T19:45:30.779Z,3.50
2019-01-12T19:48:01.463Z,3.93
2019-01-12T19:50:32.066Z,3.73
2019-01-12T19:53:02.829Z,4.03
2019-01-12T19:55:33.521Z,3.47
2019-01-12T19:58:03.816Z,3.33
2019-01-12T20:00:37.952Z,3.30
2019-01-12T20:03:08.354Z,3.30
2019-01-12T20:05:39.015Z,2.90
2019-01-12T20:08:10.069Z,3.50
2019-01-12T20:10:40.681Z,3.70
2019-01-12T20:13:11.737Z,3.40
2019-01-12T20:15:43.048Z,3.77
2019-01-12T20:18:14.670Z,3.10
2019-01-12T20:20:45.785Z,3.17
2019-01-12T20:23:17.269Z,3.53
2019-01-12T20:25:48.255Z,3.20
2019-01-12T20:28:21.767Z,3.70
2019-01-12T20:31:37.462Z,3.50
2019-01-12T20:35:10.025Z,3.80
2019-01-12T20:38:11.455Z,3.57
2019-01-12T20:41:35.932Z,3.20
2019-01-12T20:45:18.810Z,3.27
2019-01-12T20:48:40.931Z,2.77
2019-01-12T20:52:16.380Z,3.37
2019-01-12T20:55:45.200Z,2.83
2019-01-12T20:59:28.329Z,3.03
2019-01-12T21:02:39.072Z,3.03
2019-01-12T21:05:44.632Z,3.10
2019-01-12T21:09:06.465Z,3.00
2019-01-12T21:12:26.313Z,2.70
2019-01-12T21:15:14.728Z,2.70
2019-01-12T21:17:46.172Z,2.60
2019-01-12T21:20:17.190Z,2.10
2019-01-12T21:22:48.403Z,2.40
2019-01-12T21:25:19.059Z,2.63
2019-01-12T21:27:50.343Z,1.80
2019-01-12T21:30:21.657Z,1.93
2019-01-12T21:32:52.364Z,1.80
2019-01-12T21:35:22.658Z,1.50
2019-01-12T21:37:53.677Z,1.70
2019-01-12T21:40:24.350Z,1.70
2019-01-12T21:42:54.636Z,1.57
2019-01-12T21:45:25.361Z,1.63
2019-01-12T21:47:56.080Z,1.53
2019-01-12T21:50:27.143Z,1.77
2019-01-12T21:52:58.175Z,1.97
2019-01-12T21:55:31.046Z,1.60
2019-01-12T21:58:02.522Z,1.87
2019-01-12T22:00:34.119Z,1.77
2019-01-12T22:03:04.805Z,1.63
2019-01-12T22:05:35.411Z,1.50
2019-01-12T22:08:06.851Z,1.33
2019-01-12T22:10:37.811Z,1.83
2019-01-12T22:13:09.218Z,1.90
2019-01-12T22:15:39.844Z,1.60
2019-01-12T22:18:10.846Z,1.57
2019-01-12T22:20:41.974Z,1.70
2019-01-12T22:23:13.312Z,1.27
2019-01-12T22:25:44.369Z,1.60
2019-01-12T22:28:15.389Z,1.40
2019-01-12T22:30:46.095Z,1.70
2019-01-12T22:33:17.086Z,1.50
2019-01-12T22:35:48.127Z,1.33
2019-01-12T22:38:19.570Z,1.90
2019-01-12T22:40:50.205Z,1.60
2019-01-12T22:43:20.948Z,1.43
2019-01-12T22:45:53.649Z,1.90
2019-01-12T22:48:25.376Z,1.60
2019-01-12T22:50:55.989Z,1.43
2019-01-12T22:53:27.653Z,1.33
2019-01-12T22:55:59.650Z,1.50
2019-01-12T22:58:30.932Z,1.27
2019-01-12T23:01:41.174Z,1.33
2019-01-12T23:04:12.493Z,1.33
2019-01-12T23:06:44.450Z,1.27
2019-01-12T23:09:15.677Z,1.30
2019-01-12T23:11:45.962Z,1.10
2019-01-12T23:14:17.323Z,1.10
2019-01-12T23:16:48.863Z,1.50
2019-01-12T23:19:19.628Z,1.23
2019-01-12T23:21:50.260Z,1.03
2019-01-12T23:24:39.140Z,1.37
2019-01-12T23:27:10.116Z,1.17
2019-01-12T23:29:41.092Z,1.13
2019-01-12T23:32:12.461Z,1.30
2019-01-12T23:34:44.221Z,1.27
2019-01-12T23:37:14.867Z,1.23
2019-01-12T23:39:46.791Z,1.20
2019-01-12T23:42:17.857Z,1.10
2019-01-12T23:45:11.197Z,1.30
2019-01-12T23:47:58.259Z,1.50
2019-01-12T23:50:46.573Z,1.13
2019-01-12T23:53:17.624Z,1.10
2019-01-12T23:55:48.358Z,1.00
2019-01-12T23:58:19.397Z,1.43
